Time;durP1;ratioP1;P1;durP2;ratioP2;P2;SDS_P1;SDS_P2;PMS_P1;PMS_P2;Temp;Humidity;BMP_temperature;BMP_pressure;BME280_temperature;BME280_humidity;BME280_pressure;Samples;Min_cycle;Max_cycle;Signal;HPM_P1;HPM_P2
2022/06/03 00:02:07;;;;;;;;;5.00;5.00;;;;;22.48;39.62;101206.81;5076300;27;45410;-79
2022/06/03 00:04:48;;;;;;;;;3.75;3.25;;;;;22.47;39.58;101199.78;5075545;28;45333;-80
2022/06/03 00:07:36;;;;;;;;;4.00;3.25;;;;;22.47;39.94;101205.06;5076018;28;45870;-77
2022/06/03 00:10:22;;;;;;;;;5.25;5.00;;;;;22.45;39.85;101198.91;5057778;28;45464;-80
2022/06/03 00:13:18;;;;;;;;;5.00;5.00;;;;;22.44;39.73;101199.78;5076241;28;45523;-80
2022/06/03 00:15:55;;;;;;;;;3.00;3.00;;;;;22.41;40.04;101202.38;5075732;28;45418;-80
2022/06/03 00:18:40;;;;;;;;;4.00;4.00;;;;;22.37;40.07;101203.25;5084043;28;45728;-80
2022/06/03 00:21:12;;;;;;;;;3.00;3.00;;;;;22.27;40.29;101184.75;5081143;27;45292;-80
2022/06/03 00:24:11;;;;;;;;;4.50;3.25;;;;;22.29;40.00;101186.53;5076871;28;45756;-80
2022/06/03 00:26:42;;;;;;;;;2.25;2.25;;;;;22.28;40.52;101185.63;5075956;28;45489;-80
2022/06/03 00:29:33;;;;;;;;;4.00;4.00;;;;;22.28;39.92;101190.91;5076982;28;45465;-80
2022/06/03 00:32:23;;;;;;;;;3.50;3.50;;;;;22.27;39.94;101190.03;5079374;27;45489;-80
2022/06/03 00:35:26;;;;;;;;;4.00;3.00;;;;;22.22;40.18;101183.00;5079526;27;45530;-80
2022/06/03 00:38:22;;;;;;;;;2.75;2.75;;;;;22.14;40.27;101190.88;5078678;28;46087;-80
2022/06/03 00:41:25;;;;;;;;;3.00;3.00;;;;;22.02;40.41;101182.94;5078841;28;45362;-80
2022/06/03 00:43:59;;;;;;;;;2.00;2.00;;;;;22.02;40.67;101196.09;5078835;27;45450;-80
2022/06/03 00:46:45;;;;;;;;;3.75;3.00;;;;;21.97;40.84;101192.59;5078970;27;45265;-80
2022/06/03 00:49:52;;;;;;;;;3.00;3.00;;;;;21.98;40.61;101191.69;5079014;28;45273;-80
2022/06/03 00:52:36;;;;;;;;;4.50;3.75;;;;;21.97;40.86;101201.38;5078476;28;45782;-80
2022/06/03 00:55:07;;;;;;;;;4.75;4.50;;;;;21.95;41.01;101203.09;5078870;27;45461;-80
2022/06/03 00:58:08;;;;;;;;;3.50;3.50;;;;;21.87;40.73;101199.56;5078784;28;45336;-80
2022/06/03 01:00:57;;;;;;;;;4.00;4.00;;;;;21.88;40.96;101207.47;5081897;27;46165;-80
2022/06/03 01:03:40;;;;;;;;;4.00;4.00;;;;;21.81;40.79;101195.16;5086002;27;45401;-80
2022/06/03 01:06:09;;;;;;;;;3.00;3.00;;;;;21.89;41.11;101205.75;5085005;27;45324;-80
2022/06/03 01:08:40;;;;;;;;;5.00;3.50;;;;;21.89;40.82;101198.69;5079596;28;45410;-80
2022/06/03 01:11:17;;;;;;;;;3.25;3.00;;;;;21.80;40.58;101193.38;5079020;27;45477;-79
2022/06/03 01:13:58;;;;;;;;;3.25;3.00;;;;;21.84;41.29;101205.72;5078788;28;45292;-80
2022/06/03 01:16:52;;;;;;;;;3.25;3.25;;;;;21.83;40.92;101196.03;5078190;27;45489;-80
2022/06/03 01:19:52;;;;;;;;;3.00;3.00;;;;;21.78;40.80;101192.50;5077163;28;45348;-80
2022/06/03 01:22:51;;;;;;;;;3.00;3.00;;;;;21.74;41.11;101201.28;5059718;28;47853;-80
2022/06/03 01:26:07;;;;;;;;;4.75;3.25;;;;;21.69;41.43;101192.47;5077962;27;45343;-79
2022/06/03 01:28:43;;;;;;;;;4.00;3.00;;;;;21.68;41.05;101181.06;5073621;27;45352;-80
2022/06/03 01:31:48;;;;;;;;;3.00;3.00;;;;;21.68;41.70;101182.78;5078932;28;45208;-80
2022/06/03 01:34:21;;;;;;;;;5.50;3.25;;;;;21.67;41.46;101187.19;5059584;28;47989;-79
2022/06/03 01:37:11;;;;;;;;;3.00;3.00;;;;;21.54;41.74;101173.06;5078687;28;45405;-79
2022/06/03 01:39:55;;;;;;;;;3.25;3.25;;;;;21.47;41.41;101171.22;5082100;27;45177;-80
2022/06/03 01:42:55;;;;;;;;;4.75;3.00;;;;;21.52;41.58;101173.88;5077999;28;45349;-80
2022/06/03 01:45:30;;;;;;;;;3.00;3.00;;;;;21.48;42.27;101170.38;5077640;27;45714;-79
2022/06/03 01:47:58;;;;;;;;;3.00;3.00;;;;;21.48;42.03;101179.16;5081459;28;45785;-79
2022/06/03 01:50:54;;;;;;;;;4.75;4.00;;;;;21.47;41.58;101174.78;5085135;28;45324;-79
2022/06/03 01:53:42;;;;;;;;;2.50;2.50;;;;;21.44;42.54;101173.84;5084073;27;45293;-80
2022/06/03 01:56:18;;;;;;;;;3.00;3.00;;;;;21.42;42.43;101163.31;5079684;27;46546;-80
2022/06/03 01:58:56;;;;;;;;;3.25;3.25;;;;;21.40;42.29;101165.03;5077943;27;45855;-80
2022/06/03 02:01:42;;;;;;;;;3.50;3.50;;;;;21.36;42.32;101160.66;5077949;28;45310;-80
2022/06/03 02:04:08;;;;;;;;;3.00;3.00;;;;;21.35;42.00;101164.16;5078286;27;45295;-79
2022/06/03 02:07:11;;;;;;;;;3.00;3.00;;;;;21.33;42.05;101158.84;5077287;28;46217;-79
2022/06/03 02:10:04;;;;;;;;;4.00;3.25;;;;;21.31;42.56;101154.47;5077363;27;45860;-80
2022/06/03 02:13:06;;;;;;;;;3.50;2.25;;;;;21.29;42.65;101156.19;5077166;27;45462;-80
2022/06/03 02:15:53;;;;;;;;;4.25;3.50;;;;;21.25;42.37;101150.03;5077554;27;45450;-79
2022/06/03 02:18:44;;;;;;;;;3.75;3.75;;;;;21.21;42.43;101145.66;5077321;28;46615;-79
2022/06/03 02:21:40;;;;;;;;;2.25;2.25;;;;;21.15;42.71;101135.97;5077842;28;45259;-80
2022/06/03 02:24:21;;;;;;;;;4.00;4.00;;;;;21.13;43.33;101134.16;5078177;28;45417;-80
2022/06/03 02:27:28;;;;;;;;;5.00;3.25;;;;;21.11;42.78;101128.03;5059347;28;45293;-80
2022/06/03 02:30:26;;;;;;;;;4.00;4.00;;;;;21.14;42.84;101126.28;5048130;28;45653;-80
2022/06/03 02:33:10;;;;;;;;;5.00;5.00;;;;;21.13;43.28;101123.63;5066025;28;45375;-80
2022/06/03 02:35:54;;;;;;;;;3.75;3.00;;;;;21.12;43.20;101121.88;5083462;27;45240;-80
2022/06/03 02:38:56;;;;;;;;;3.00;3.00;;;;;21.09;43.57;101109.56;5078233;28;45319;-80
2022/06/03 02:41:41;;;;;;;;;3.50;2.75;;;;;21.09;43.33;101108.72;5058643;28;46325;-80
2022/06/03 02:44:35;;;;;;;;;4.00;4.00;;;;;21.08;43.26;101106.94;5077042;28;45825;-79
2022/06/03 02:47:00;;;;;;;;;3.25;2.50;;;;;;;;5077177;28;45374;-79
2022/06/03 02:49:52;;;;;;;;;5.75;5.00;;;;;21.07;43.52;101107.81;5058771;28;45391;-79
2022/06/03 02:52:55;;;;;;;;;2.50;2.50;;;;;21.05;43.39;101105.19;5075645;27;45493;-80
2022/06/03 02:55:34;;;;;;;;;3.00;3.00;;;;;21.02;43.63;101102.53;5075822;28;45876;-79
2022/06/03 02:58:20;;;;;;;;;4.75;3.75;;;;;20.99;43.41;101103.38;5076826;28;45479;-79
2022/06/03 03:01:07;;;;;;;;;3.00;3.00;;;;;20.98;43.27;101098.09;5077322;28;45371;-80
2022/06/03 03:04:04;;;;;;;;;3.00;3.00;;;;;20.92;44.03;101106.81;5076734;28;45507;-79
2022/06/03 03:06:29;;;;;;;;;4.25;3.25;;;;;20.87;43.42;101111.19;5058249;28;45263;-80
2022/06/03 03:09:26;;;;;;;;;3.25;3.25;;;;;20.85;43.59;101098.00;5076807;28;45289;-80
2022/06/03 03:12:10;;;;;;;;;3.00;3.00;;;;;20.86;44.07;101101.53;5077547;28;45240;-79
2022/06/03 03:15:16;;;;;;;;;4.00;2.00;;;;;20.83;43.79;101102.41;5078570;28;45619;-79
2022/06/03 03:17:45;;;;;;;;;3.75;3.75;;;;;20.83;44.33;101096.25;5066295;28;45660;-84
2022/06/03 03:20:32;;;;;;;;;3.75;3.00;;;;;20.82;43.71;101094.47;5084102;28;45352;-85
2022/06/03 03:23:35;;;;;;;;;3.75;2.75;;;;;20.81;44.33;101090.97;5085799;27;45361;-84
2022/06/03 03:26:32;;;;;;;;;3.25;3.25;;;;;20.83;44.32;101096.25;5079448;27;45343;-84
2022/06/03 03:29:16;;;;;;;;;2.75;2.50;;;;;20.84;43.92;101100.63;5077293;28;45736;-84
2022/06/03 03:32:00;;;;;;;;;3.50;3.50;;;;;20.84;44.32;101111.16;5077290;28;45353;-85
2022/06/03 03:34:54;;;;;;;;;4.25;4.25;;;;;20.81;44.22;101112.03;5076668;28;45429;-85
2022/06/03 03:37:31;;;;;;;;;5.75;3.50;;;;;20.81;44.55;101114.66;5076250;28;46207;-85
2022/06/03 03:40:14;;;;;;;;;3.75;3.50;;;;;20.78;44.54;101106.75;5076719;28;45797;-85
2022/06/03 03:43:02;;;;;;;;;3.75;3.75;;;;;20.76;44.28;101100.59;5081490;28;45229;-84
2022/06/03 03:45:46;;;;;;;;;2.50;2.50;;;;;20.73;44.31;101098.78;5082426;28;45548;-83
2022/06/03 03:48:34;;;;;;;;;4.75;4.75;;;;;20.71;44.89;101090.00;5080011;28;45448;-85
2022/06/03 03:51:46;;;;;;;;;4.00;3.00;;;;;20.71;44.86;101092.63;5076991;28;45351;-84
2022/06/03 03:54:27;;;;;;;;;3.00;3.00;;;;;20.75;45.13;101090.06;5076922;28;45314;-85
2022/06/03 03:57:04;;;;;;;;;5.00;3.75;;;;;20.70;44.51;101093.50;5082087;27;45130;-85
2022/06/03 03:59:55;;;;;;;;;3.50;3.50;;;;;20.69;44.50;101091.72;5076609;28;45955;-81
2022/06/03 04:02:30;;;;;;;;;5.25;4.00;;;;;20.70;45.13;101090.00;5066095;28;45654;-86
2022/06/03 04:05:47;;;;;;;;;4.50;4.00;;;;;20.69;44.88;101088.22;5087183;28;45235;-86
2022/06/03 04:08:43;;;;;;;;;7.00;5.00;;;;;20.69;45.33;101101.38;5033320;28;45299;-85
2022/06/03 04:11:34;;;;;;;;;4.75;4.00;;;;;20.72;45.52;101104.03;5085010;27;46540;-85
2022/06/03 04:14:37;;;;;;;;;4.00;4.00;;;;;20.79;45.01;101119.03;5045257;28;45578;-90
2022/06/03 04:17:41;;;;;;;;;3.25;3.25;;;;;20.83;45.22;101112.03;5080843;27;45283;-87
2022/06/03 04:20:15;;;;;;;;;5.00;5.00;;;;;20.82;45.18;101108.53;5081235;27;45307;-87
2022/06/03 04:23:04;;;;;;;;;5.50;4.50;;;;;20.84;45.07;101112.03;5081596;28;45465;-88
2022/06/03 04:25:38;;;;;;;;;4.00;4.00;;;;;20.85;45.03;101112.94;5083620;27;45330;-90
2022/06/03 04:28:29;;;;;;;;;3.75;3.75;;;;;20.85;45.57;101102.41;5084307;27;45233;-91
2022/06/03 04:31:03;;;;;;;;;7.25;5.00;;;;;20.75;45.74;101082.16;5083138;27;45693;-91
2022/06/03 04:33:32;;;;;;;;;6.75;5.00;;;;;20.84;45.36;101096.25;5082548;28;45492;-87
2022/06/03 04:36:19;;;;;;;;;5.00;5.00;;;;;20.85;45.23;101091.88;5082964;27;46042;-88
2022/06/03 04:39:22;;;;;;;;;5.25;5.00;;;;;20.86;45.56;101096.28;5066160;27;45289;-87
2022/06/03 04:42:18;;;;;;;;;4.50;4.00;;;;;20.90;45.71;101100.66;5062889;28;45426;-89
2022/06/03 04:45:29;;;;;;;;;3.75;3.75;;;;;20.91;45.96;101094.53;5085151;28;45259;-84
2022/06/03 04:48:22;;;;;;;;;4.25;4.25;;;;;20.96;46.18;101103.34;5086530;28;45783;-86
2022/06/03 04:51:35;;;;;;;;;5.50;5.50;;;;;20.95;45.66;101106.84;5086405;28;45374;-87
2022/06/03 04:54:22;;;;;;;;;4.00;4.00;;;;;20.91;46.22;101117.34;5083797;27;45647;-85
2022/06/03 04:57:15;;;;;;;;;6.25;3.50;;;;;20.90;46.36;101120.84;5061185;28;47112;-84
2022/06/03 05:00:00;;;;;;;;;4.50;4.50;;;;;20.84;46.28;101105.91;5085056;28;45288;-84
2022/06/03 05:03:20;;;;;;;;;4.75;4.75;;;;;20.88;46.38;101116.47;5066185;28;45340;-86
2022/06/03 05:05:55;;;;;;;;;8.00;4.25;;;;;20.85;46.85;101116.44;4998873;28;45386;-85
2022/06/03 05:08:47;;;;;;;;;0.25;0.00;;;;;20.84;46.57;101114.66;5049412;28;47030;-86
2022/06/03 05:12:02;;;;;;;;;6.00;6.00;;;;;20.88;46.71;101108.56;5080093;28;45698;-87
2022/06/03 05:14:47;;;;;;;;;8.00;8.00;;;;;20.87;47.37;101108.56;5067316;28;45378;-88
2022/06/03 05:17:54;;;;;;;;;4.50;4.00;;;;;20.86;47.56;101097.13;5078932;27;45422;-85
2022/06/03 05:20:35;;;;;;;;;6.00;5.00;;;;;20.88;48.07;101095.41;5079080;28;45906;-86
2022/06/03 05:23:06;;;;;;;;;5.50;5.50;;;;;20.89;47.33;101083.16;5078910;28;45232;-86
2022/06/03 05:26:18;;;;;;;;;6.00;4.00;;;;;20.92;47.27;101085.78;5079363;28;45370;-87
2022/06/03 05:29:07;;;;;;;;;4.50;4.50;;;;;20.88;47.63;101087.50;5083673;27;45452;-87
2022/06/03 05:31:48;;;;;;;;;5.00;4.00;;;;;20.92;48.22;101093.66;5086753;28;46505;-87
2022/06/03 05:34:45;;;;;;;;;4.25;4.25;;;;;20.94;47.67;101102.47;5055805;28;45792;-85
2022/06/03 05:37:32;;;;;;;;;4.00;4.00;;;;;20.96;48.13;101106.00;5082337;28;45394;-87
2022/06/03 05:40:22;;;;;;;;;5.00;4.25;;;;;20.98;47.97;101106.88;5078824;28;45458;-89
2022/06/03 05:42:59;;;;;;;;;8.25;5.50;;;;;20.98;48.38;101106.88;5077735;28;45460;-88
2022/06/03 05:45:50;;;;;;;;;5.50;5.50;;;;;21.01;48.61;101100.75;5075440;28;45416;-88
2022/06/03 05:49:00;;;;;;;;;4.50;4.50;;;;;21.02;48.47;101098.13;5078498;27;45338;-81
2022/06/03 05:51:57;;;;;;;;;7.75;6.50;;;;;21.04;48.52;101095.50;5019007;28;45919;-81
2022/06/03 05:54:34;;;;;;;;;7.25;6.75;;;;;21.03;49.05;101086.72;5009583;28;45537;-85
2022/06/03 05:57:05;;;;;;;;;6.25;6.25;;;;;21.05;48.74;101096.38;5042350;28;45962;-84
2022/06/03 05:59:58;;;;;;;;;7.50;4.50;;;;;21.09;48.56;101098.19;5057283;28;45569;-84
2022/06/03 06:02:32;;;;;;;;;9.75;6.50;;;;;21.13;48.80;101092.03;5058780;28;45268;-81
2022/06/03 06:05:19;;;;;;;;;5.50;5.50;;;;;21.15;48.80;101099.09;5040088;28;47134;-83
2022/06/03 06:07:54;;;;;;;;;6.00;5.00;;;;;21.17;49.33;101088.56;5043070;28;45746;-82
2022/06/03 06:10:43;;;;;;;;;6.00;6.00;;;;;21.18;48.87;101085.91;5064968;27;45406;-87
2022/06/03 06:13:58;;;;;;;;;4.00;4.00;;;;;21.29;49.49;101088.63;5081112;28;45310;-84
2022/06/03 06:16:35;;;;;;;;;6.50;5.50;;;;;21.33;49.15;101086.88;5062423;27;45643;-87
2022/06/03 06:19:10;;;;;;;;;6.00;6.00;;;;;21.35;49.59;101095.69;5066099;28;45262;-85
2022/06/03 06:22:03;;;;;;;;;4.25;4.25;;;;;21.35;49.46;101093.03;5078167;28;45513;-84
2022/06/03 06:24:35;;;;;;;;;5.00;5.00;;;;;21.34;49.99;101091.28;5073430;28;45225;-79
2022/06/03 06:27:12;;;;;;;;;6.25;6.25;;;;;21.37;49.48;101087.78;5058648;28;46983;-78
2022/06/03 06:29:56;;;;;;;;;4.75;4.75;;;;;21.38;49.76;101087.75;5083395;27;45774;-79
2022/06/03 06:32:47;;;;;;;;;7.75;7.00;;;;;21.42;49.98;101086.06;5080158;27;45386;-78
2022/06/03 06:35:22;;;;;;;;;6.50;6.50;;;;;21.45;49.91;101086.94;5077649;27;45224;-88
2022/06/03 06:38:09;;;;;;;;;6.00;6.00;;;;;21.43;49.84;101079.91;5059577;28;47608;-78
2022/06/03 06:40:37;;;;;;;;;6.50;6.50;;;;;21.48;50.53;101092.22;5077223;27;45395;-77
2022/06/03 06:43:29;;;;;;;;;6.25;6.25;;;;;21.49;50.45;101088.69;5076693;27;45526;-76
2022/06/03 06:45:58;;;;;;;;;5.75;5.25;;;;;21.52;51.21;101084.31;5055840;28;45428;-76
2022/06/03 06:49:05;;;;;;;;;5.50;5.50;;;;;21.54;50.91;101088.75;5052724;28;47022;-76
2022/06/03 06:52:05;;;;;;;;;7.50;5.75;;;;;21.56;50.58;101079.06;5076255;27;45401;-75
2022/06/03 06:54:37;;;;;;;;;6.50;6.50;;;;;21.59;50.85;101081.75;5080190;27;45489;-78
2022/06/03 06:57:10;;;;;;;;;6.25;6.25;;;;;21.59;51.12;101070.34;5076343;28;45298;-77
2022/06/03 06:59:49;;;;;;;;;5.25;5.25;;;;;21.67;50.61;101072.97;5079534;27;46849;-77
2022/06/03 07:02:31;;;;;;;;;5.25;5.25;;;;;21.73;50.92;101065.97;5087489;27;45897;-78
2022/06/03 07:05:36;;;;;;;;;7.25;7.25;;;;;21.77;50.80;101069.50;5080629;27;45498;-77
2022/06/03 07:08:14;;;;;;;;;9.00;8.00;;;;;21.81;51.18;101071.28;5045283;27;45347;-78
2022/06/03 07:10:55;;;;;;;;;8.00;8.00;;;;;21.86;50.99;101077.44;5089697;27;45540;-78
2022/06/03 07:13:45;;;;;;;;;8.00;7.25;;;;;21.90;51.27;101065.16;5075975;28;45462;-77
2022/06/03 07:22:45;;;;;;;;;9.75;8.00;;;;;22.04;51.58;101054.63;5075415;28;45690;-80
2022/06/03 07:25:39;;;;;;;;;10.25;7.25;;;;;22.02;51.52;101059.91;5075230;28;45334;-78
2022/06/03 07:28:40;;;;;;;;;9.25;7.25;;;;;22.09;50.98;101061.66;5075734;27;45475;-78
2022/06/03 07:31:26;;;;;;;;;8.50;7.00;;;;;22.14;51.08;101066.94;5075448;27;45514;-77
2022/06/03 07:34:11;;;;;;;;;11.50;6.75;;;;;22.16;51.15;101067.81;5057433;28;46907;-78
2022/06/03 07:36:46;;;;;;;;;7.00;7.00;;;;;22.20;51.42;101074.84;5076107;28;45364;-79
2022/06/03 07:39:39;;;;;;;;;9.00;8.00;;;;;22.19;51.15;101078.34;5078440;27;45432;-77
2022/06/03 07:42:24;;;;;;;;;10.50;8.50;;;;;22.20;52.01;101079.25;5056959;28;45354;-77
2022/06/03 07:45:11;;;;;;;;;9.00;8.00;;;;;22.21;52.03;101081.88;5057197;28;45637;-80
2022/06/03 07:47:38;;;;;;;;;6.00;6.00;;;;;22.25;51.82;101075.75;5059908;28;45466;-79
2022/06/03 07:50:15;;;;;;;;;7.50;7.00;;;;;22.32;51.52;101078.38;5062150;28;45414;-78
2022/06/03 07:53:11;;;;;;;;;12.25;11.00;;;;;22.34;51.97;101066.97;5057764;28;45315;-78
2022/06/03 07:55:37;;;;;;;;;9.00;9.00;;;;;22.44;51.57;101090.72;5057732;28;46498;-77
2022/06/03 07:58:06;;;;;;;;;8.00;8.00;;;;;22.48;52.06;101087.19;5080437;27;45403;-77
2022/06/03 08:00:40;;;;;;;;;9.25;7.25;;;;;22.47;52.08;101096.88;5082340;27;45445;-78
2022/06/03 08:03:16;;;;;;;;;7.50;7.50;;;;;22.52;52.05;101094.25;5074705;27;45529;-77
2022/06/03 08:05:45;;;;;;;;;10.00;9.00;;;;;22.62;51.96;101096.00;5087424;27;45512;-78
2022/06/03 08:11:04;;;;;;;;;9.75;9.75;;;;;22.71;51.97;101092.47;5075176;27;45530;-81
2022/06/03 08:13:39;;;;;;;;;7.25;7.25;;;;;22.80;51.74;101094.19;5079243;27;45838;-79
2022/06/03 08:16:11;;;;;;;;;9.00;9.00;;;;;22.85;51.68;101098.59;5095411;27;45868;-81
2022/06/03 08:18:40;;;;;;;;;7.75;7.75;;;;;22.87;51.61;101096.84;5091664;27;45412;-79
2022/06/03 08:21:21;;;;;;;;;5.50;5.50;;;;;22.92;51.54;101109.16;5096298;27;45433;-79
2022/06/03 08:23:47;;;;;;;;;7.75;7.75;;;;;22.92;51.62;101093.31;5098760;27;45307;-80
2022/06/03 08:26:20;;;;;;;;;7.00;7.00;;;;;22.99;51.38;101093.31;5066437;27;46745;-82
2022/06/03 08:29:15;;;;;;;;;7.25;7.25;;;;;22.99;51.58;101084.50;5084458;27;45433;-85
2022/06/03 08:31:44;;;;;;;;;8.50;7.00;;;;;23.06;51.09;101088.00;5069518;28;45488;-81
2022/06/03 08:34:27;;;;;;;;;8.50;8.50;;;;;23.04;51.43;101059.84;5053458;28;45324;-83
2022/06/03 08:36:54;;;;;;;;;9.00;8.00;;;;;23.19;51.35;101079.19;5080916;28;46131;-79
2022/06/03 08:39:26;;;;;;;;;8.00;8.00;;;;;23.17;51.59;101068.59;5082195;27;45746;-83
2022/06/03 08:42:03;;;;;;;;;9.50;8.00;;;;;23.18;51.69;101064.19;5099811;27;45430;-81
2022/06/03 08:44:53;;;;;;;;;10.25;8.00;;;;;23.21;51.18;101043.09;5079468;27;45416;-82
2022/06/03 08:47:21;;;;;;;;;9.00;7.00;;;;;23.42;51.81;101055.31;5078424;27;46173;-82
2022/06/03 08:49:47;;;;;;;;;10.75;10.75;;;;;23.49;51.65;101059.69;5083791;28;45334;-84
2022/06/03 08:52:19;;;;;;;;;9.00;9.00;;;;;23.54;51.59;101058.78;5055942;28;45369;-82
2022/06/03 08:54:51;;;;;;;;;8.50;8.25;;;;;23.54;51.63;101042.94;5082333;27;45413;-80
2022/06/03 08:57:32;;;;;;;;;9.50;8.75;;;;;23.64;51.90;101048.19;5051668;28;45635;-82
2022/06/03 09:00:12;;;;;;;;;10.25;9.00;;;;;23.64;51.60;101042.00;5072474;27;45883;-85
2022/06/03 09:02:51;;;;;;;;;9.75;8.25;;;;;23.75;51.83;101061.31;5082167;27;45192;-78
2022/06/03 09:05:32;;;;;;;;;12.00;9.75;;;;;23.69;51.88;101036.69;5061720;28;45427;-79
2022/06/03 09:08:11;;;;;;;;;9.25;8.75;;;;;23.77;52.37;101043.69;5097414;27;45262;-80
2022/06/03 09:10:50;;;;;;;;;10.00;9.75;;;;;23.79;52.56;101046.31;5100543;27;45422;-82
2022/06/03 09:13:21;;;;;;;;;9.00;9.00;;;;;23.88;53.01;101050.66;5101334;27;45307;-79
2022/06/03 09:15:49;;;;;;;;;9.50;8.00;;;;;23.79;52.40;101025.16;5091752;27;45471;-79
2022/06/03 09:18:26;;;;;;;;;12.75;10.00;;;;;23.91;53.93;101045.38;5080267;27;45725;-82
2022/06/03 09:21:03;;;;;;;;;9.50;9.50;;;;;23.94;54.26;101038.28;5081402;27;45795;-82
2022/06/03 09:23:36;;;;;;;;;10.25;9.00;;;;;24.06;54.50;101047.91;5081406;27;45437;-81
2022/06/03 09:26:03;;;;;;;;;10.00;8.75;;;;;24.18;54.20;101040.78;5062516;27;45400;-78
2022/06/03 09:28:36;;;;;;;;;14.75;13.50;;;;;24.29;53.97;101046.00;5079269;27;45429;-79
2022/06/03 09:31:09;;;;;;;;;12.50;12.50;;;;;24.31;54.15;101038.88;5084484;27;45473;-83
2022/06/03 09:33:37;;;;;;;;;13.50;10.50;;;;;24.37;53.61;101052.09;5084186;27;45814;-79
2022/06/03 09:36:07;;;;;;;;;9.75;9.75;;;;;24.35;53.51;101041.50;5084124;27;45314;-84
2022/06/03 09:39:19;;;;;;;;;11.00;11.00;;;;;24.38;53.89;101067.94;5092131;27;46310;-80
2022/06/03 09:41:53;;;;;;;;;11.50;11.50;;;;;24.40;54.29;101062.66;5070836;28;45591;-80
2022/06/03 09:44:23;;;;;;;;;10.50;9.00;;;;;24.41;54.73;101054.69;5075662;27;45536;-81
2022/06/03 09:46:57;;;;;;;;;14.00;11.25;;;;;24.57;55.00;101063.38;5077848;27;45502;-82
2022/06/03 09:49:25;;;;;;;;;14.25;12.50;;;;;24.67;53.97;101058.88;5098299;27;45527;-80
2022/06/03 09:51:56;;;;;;;;;12.25;12.25;;;;;24.82;54.60;101068.47;5068721;27;45406;-82
2022/06/03 09:54:31;;;;;;;;;12.25;12.00;;;;;24.96;54.77;101060.38;5077426;28;45535;-80
2022/06/03 09:57:23;;;;;;;;;12.75;10.75;;;;;25.11;54.29;101067.25;5075281;27;45567;-80
2022/06/03 10:00:12;;;;;;;;;10.00;8.50;;;;;25.25;54.26;101067.09;5075941;28;45387;-81
2022/06/03 10:02:38;;;;;;;;;9.00;9.00;;;;;25.33;54.49;101070.50;5081589;28;45434;-79
2022/06/03 10:05:06;;;;;;;;;11.75;11.50;;;;;25.37;53.71;101086.38;5084173;27;45260;-80
2022/06/03 10:07:32;;;;;;;;;9.75;9.75;;;;;25.45;53.34;101097.78;5081062;28;45513;-80
2022/06/03 10:12:56;;;;;;;;;12.25;11.00;;;;;25.62;52.72;101071.06;5077473;27;45823;-78
2022/06/03 10:15:44;;;;;;;;;13.00;12.50;;;;;25.73;51.68;101093.00;5079618;28;45366;-82
2022/06/03 10:18:37;;;;;;;;;15.00;12.75;;;;;25.69;52.22;101078.06;5057154;28;46079;-79
2022/06/03 10:21:08;;;;;;;;;14.25;14.00;;;;;25.67;51.47;101066.59;5075068;28;46684;-85
2022/06/03 10:23:43;;;;;;;;;14.25;13.25;;;;;25.62;52.24;101058.69;5076165;28;45419;-81
2022/06/03 10:26:17;;;;;;;;;23.25;21.25;;;;;25.83;52.40;101072.53;5076058;28;45396;-79
2022/06/03 10:28:43;;;;;;;;;21.25;20.50;;;;;25.88;52.09;101051.25;5076486;28;45445;-84
2022/06/03 10:31:17;;;;;;;;;21.50;19.00;;;;;26.02;51.70;101064.28;5074411;27;46522;-80
2022/06/03 10:33:53;;;;;;;;;19.00;18.00;;;;;25.82;51.43;101038.97;5075560;28;45414;-79
2022/06/03 10:36:24;;;;;;;;;24.75;24.75;;;;;25.92;51.63;101050.28;5077071;28;45533;-81
2022/06/03 10:38:51;;;;;;;;;14.25;14.25;;;;;25.95;51.79;101052.91;5076691;28;45355;-81
2022/06/03 10:41:17;;;;;;;;;15.00;14.00;;;;;25.99;52.10;101046.66;5076479;28;46473;-80
2022/06/03 10:43:43;;;;;;;;;14.00;13.00;;;;;26.04;51.56;101051.88;5058688;28;45778;-77
2022/06/03 10:46:15;;;;;;;;;16.00;14.25;;;;;26.00;52.29;101047.53;5077079;28;45427;-82
2022/06/03 10:48:42;;;;;;;;;17.25;14.50;;;;;26.06;52.01;101048.31;5077188;28;45574;-76
2022/06/03 10:51:18;;;;;;;;;15.75;15.75;;;;;26.12;51.90;101047.34;5075437;28;45259;-77
2022/06/03 11:02:32;;;;;;;;;13.25;13.25;;;;;26.23;53.26;101040.09;5080843;28;45782;-80
2022/06/03 11:05:26;;;;;;;;;15.00;14.50;;;;;26.28;53.84;101040.03;5075130;28;46069;-81
2022/06/03 11:08:02;;;;;;;;;14.25;14.25;;;;;26.39;54.71;101047.81;5073710;27;45383;-78
2022/06/03 11:10:35;;;;;;;;;15.25;15.25;;;;;26.39;55.07;101050.47;5077081;28;45632;-78
2022/06/03 11:13:03;;;;;;;;;16.25;14.00;;;;;26.42;54.98;101050.38;5076208;27;46202;-80
2022/06/03 11:15:38;;;;;;;;;23.50;21.75;;;;;26.50;55.47;101063.53;5078199;28;45245;-82
2022/06/03 11:18:41;;;;;;;;;14.75;12.75;;;;;26.50;56.32;101068.84;5075324;28;45414;-83
2022/06/03 11:21:23;;;;;;;;;13.75;13.75;;;;;26.48;56.30;101071.53;5065094;28;46592;-83
2022/06/03 11:23:50;;;;;;;;;15.25;15.25;;;;;26.47;56.99;101071.56;5054001;28;45579;-79
2022/06/03 11:26:17;;;;;;;;;18.00;15.50;;;;;26.33;56.93;101087.72;5067721;28;45494;-81
2022/06/03 11:28:53;;;;;;;;;16.00;13.00;;;;;26.26;57.29;101092.25;5075162;27;45445;-81
2022/06/03 11:31:35;;;;;;;;;17.25;16.50;;;;;26.16;57.36;101088.00;5076679;28;45274;-78
2022/06/03 11:34:36;;;;;;;;;16.25;15.00;;;;;26.03;58.40;101089.94;5074404;28;47345;-80
2022/06/03 11:37:17;;;;;;;;;13.00;13.00;;;;;25.78;59.21;101085.88;5076213;28;45328;-81
2022/06/03 11:39:51;;;;;;;;;16.25;14.75;;;;;25.67;60.15;101094.84;5079987;27;45456;-82
2022/06/03 11:42:30;;;;;;;;;17.25;16.25;;;;;25.54;61.81;101079.09;5058748;28;45540;-77
2022/06/03 11:45:18;;;;;;;;;15.75;15.00;;;;;25.48;61.39;101082.72;5078256;27;45591;-77
2022/06/03 11:47:59;;;;;;;;;14.25;13.75;;;;;25.29;62.38;101054.66;5082662;28;45478;-83
2022/06/03 11:50:28;;;;;;;;;14.00;12.25;;;;;25.31;62.67;101074.97;5078811;28;45313;-81
2022/06/03 11:52:55;;;;;;;;;15.50;14.50;;;;;25.33;62.97;101089.06;5077602;27;45607;-82
2022/06/03 11:55:24;;;;;;;;;16.00;12.25;;;;;25.25;64.55;101095.38;5078486;28;45386;-83
2022/06/03 11:58:19;;;;;;;;;13.50;13.50;;;;;25.19;66.15;101088.38;5080217;27;45524;-79
2022/06/03 12:00:58;;;;;;;;;11.50;11.50;;;;;25.14;65.76;101104.31;5083848;28;45217;-87
2022/06/03 12:03:35;;;;;;;;;9.00;8.75;;;;;25.06;65.89;101095.56;5080982;28;45356;-80
2022/06/03 12:06:15;;;;;;;;;13.75;13.50;;;;;25.07;66.75;101099.09;5079937;28;45997;-85
2022/06/03 12:09:08;;;;;;;;;11.25;11.00;;;;;25.06;66.00;101103.50;5066554;27;45326;-82
2022/06/03 12:14:44;;;;;;;;;10.75;10.75;;;;;25.04;67.37;101102.66;5081841;27;46371;-91
2022/06/03 12:17:09;;;;;;;;;11.25;10.00;;;;;25.01;66.59;101094.75;5081687;28;45564;-87
2022/06/03 12:19:44;;;;;;;;;9.75;8.75;;;;;24.94;68.29;101093.94;5084682;27;45319;-89
2022/06/03 12:22:31;;;;;;;;;9.75;9.75;;;;;24.83;69.27;101096.72;5082723;28;45374;-94
2022/06/03 12:25:01;;;;;;;;;10.50;10.00;;;;;24.74;68.90;101099.41;5086263;28;45389;-92
2022/06/03 12:27:36;;;;;;;;;11.75;10.00;;;;;24.65;68.75;101097.72;5067274;28;47168;-86
2022/06/03 12:30:20;;;;;;;;;13.25;10.00;;;;;24.62;69.92;101097.75;5087241;28;45177;-90
2022/06/03 12:32:58;;;;;;;;;9.00;9.00;;;;;24.62;69.44;101105.69;5084911;27;45405;-87
2022/06/03 12:35:42;;;;;;;;;11.75;10.25;;;;;24.64;70.36;101100.38;5084330;28;45434;-83
2022/06/03 12:38:20;;;;;;;;;9.00;9.00;;;;;24.66;72.32;101096.84;5086184;28;45318;-83
2022/06/03 12:40:56;;;;;;;;;10.75;8.25;;;;;24.63;73.58;101106.53;5085726;28;45309;-79
2022/06/03 12:43:31;;;;;;;;;8.00;7.25;;;;;24.57;77.63;101107.47;5085295;28;45439;-82
2022/06/03 12:46:01;;;;;;;;;7.00;7.00;;;;;24.46;79.78;101101.44;5083311;27;45537;-85
2022/06/03 12:48:50;;;;;;;;;7.00;7.00;;;;;24.44;83.92;101103.19;5081565;27;45239;-87
2022/06/03 12:51:23;;;;;;;;;6.25;6.25;;;;;24.37;83.47;101102.38;5079598;27;45735;-85
2022/06/03 12:53:53;;;;;;;;;7.75;7.75;;;;;24.34;87.17;101110.31;5081408;27;45327;-82
2022/06/03 12:56:42;;;;;;;;;8.00;8.00;;;;;24.30;91.57;101095.38;5080660;27;45418;-88
2022/06/03 12:59:36;;;;;;;;;11.00;9.25;;;;;24.23;90.43;101097.19;5082225;28;45918;-92